sensor_id;sensor_type;location;lat;lon;timestamp;pressure;altitude;pressure_sealevel;temperature;humidity
50364;BME280;36272;59.400;17.982;2023-12-20T00:00:05;99306.31;;;1.54;85.87
50364;BME280;36272;59.400;17.982;2023-12-20T00:05:07;99306.31;;;1.54;85.76
50364;BME280;36272;59.400;17.982;2023-12-20T00:10:09;99321.50;;;1.52;85.77
50364;BME280;36272;59.400;17.982;2023-12-20T00:15:11;99324.53;;;1.48;85.75
50364;BME280;36272;59.400;17.982;2023-12-20T00:20:12;99316.19;;;1.45;85.86
50364;BME280;36272;59.400;17.982;2023-12-20T00:25:14;99315.56;;;1.43;85.89
50364;BME280;36272;59.400;17.982;2023-12-20T00:30:16;99303.59;;;1.40;86.08
50364;BME280;36272;59.400;17.982;2023-12-20T00:35:18;99303.00;;;1.38;86.04
50364;BME280;36272;59.400;17.982;2023-12-20T00:40:20;99292.84;;;1.35;86.18
50364;BME280;36272;59.400;17.982;2023-12-20T00:45:22;99294.63;;;1.34;86.42
50364;BME280;36272;59.400;17.982;2023-12-20T00:50:23;99295.88;;;1.32;86.48
50364;BME280;36272;59.400;17.982;2023-12-20T00:55:25;99314.69;;;1.29;86.30
50364;BME280;36272;59.400;17.982;2023-12-20T01:00:27;99309.81;;;1.26;86.37
50364;BME280;36272;59.400;17.982;2023-12-20T01:05:28;99314.84;;;1.21;86.48
50364;BME280;36272;59.400;17.982;2023-12-20T01:10:30;99306.94;;;1.21;86.47
50364;BME280;36272;59.400;17.982;2023-12-20T01:15:34;99309.97;;;1.17;86.43
50364;BME280;36272;59.400;17.982;2023-12-20T01:20:35;99308.72;;;1.13;86.55
50364;BME280;36272;59.400;17.982;2023-12-20T01:25:37;99304.69;;;1.11;86.54
50364;BME280;36272;59.400;17.982;2023-12-20T01:30:39;99304.44;;;1.06;86.51
50364;BME280;36272;59.400;17.982;2023-12-20T01:35:45;99295.13;;;1.03;86.73
50364;BME280;36272;59.400;17.982;2023-12-20T01:40:47;99291.88;;;1.01;86.80
50364;BME280;36272;59.400;17.982;2023-12-20T01:45:49;99286.38;;;0.96;86.86
50364;BME280;36272;59.400;17.982;2023-12-20T01:50:51;99271.75;;;0.93;87.35
50364;BME280;36272;59.400;17.982;2023-12-20T01:55:55;99265.28;;;0.96;87.62
50364;BME280;36272;59.400;17.982;2023-12-20T02:00:57;99280.09;;;0.97;87.46
50364;BME280;36272;59.400;17.982;2023-12-20T02:05:59;99283.97;;;1.01;87.58
50364;BME280;36272;59.400;17.982;2023-12-20T02:11:01;99277.69;;;1.02;87.67
50364;BME280;36272;59.400;17.982;2023-12-20T02:16:03;99266.94;;;1.03;87.60
50364;BME280;36272;59.400;17.982;2023-12-20T02:21:05;99259.03;;;1.03;87.72
50364;BME280;36272;59.400;17.982;2023-12-20T02:26:07;99263.13;;;1.06;87.87
50364;BME280;36272;59.400;17.982;2023-12-20T02:31:08;99262.75;;;1.09;87.83
50364;BME280;36272;59.400;17.982;2023-12-20T02:36:10;99258.69;;;1.13;87.91
50364;BME280;36272;59.400;17.982;2023-12-20T02:41:12;99265.56;;;1.14;88.07
50364;BME280;36272;59.400;17.982;2023-12-20T02:46:15;99245.75;;;1.18;88.24
50364;BME280;36272;59.400;17.982;2023-12-20T02:51:17;99246.97;;;1.23;88.23
50364;BME280;36272;59.400;17.982;2023-12-20T02:56:18;99250.22;;;1.25;88.57
50364;BME280;36272;59.400;17.982;2023-12-20T03:01:20;99250.22;;;1.25;88.53
50364;BME280;36272;59.400;17.982;2023-12-20T03:06:22;99259.38;;;1.29;88.43
50364;BME280;36272;59.400;17.982;2023-12-20T03:11:26;99235.03;;;1.27;88.57
50364;BME280;36272;59.400;17.982;2023-12-20T03:16:28;99232.84;;;1.30;88.53
50364;BME280;36272;59.400;17.982;2023-12-20T03:21:30;99218.84;;;1.30;88.48
50364;BME280;36272;59.400;17.982;2023-12-20T03:26:32;99224.09;;;1.30;88.59
50364;BME280;36272;59.400;17.982;2023-12-20T03:31:33;99225.13;;;1.29;88.64
50364;BME280;36272;59.400;17.982;2023-12-20T03:36:35;99221.47;;;1.30;88.85
50364;BME280;36272;59.400;17.982;2023-12-20T03:41:36;99210.53;;;1.33;88.88
50364;BME280;36272;59.400;17.982;2023-12-20T03:46:38;99205.28;;;1.33;88.79
50364;BME280;36272;59.400;17.982;2023-12-20T03:51:42;99184.19;;;1.33;89.05
50364;BME280;36272;59.400;17.982;2023-12-20T03:56:44;99200.63;;;1.35;89.20
50364;BME280;36272;59.400;17.982;2023-12-20T04:01:46;99198.59;;;1.37;89.12
50364;BME280;36272;59.400;17.982;2023-12-20T04:06:47;99211.78;;;1.37;88.84
50364;BME280;36272;59.400;17.982;2023-12-20T04:11:49;99202.03;;;1.38;89.14
50364;BME280;36272;59.400;17.982;2023-12-20T04:16:50;99201.22;;;1.37;89.15
50364;BME280;36272;59.400;17.982;2023-12-20T04:21:52;99208.13;;;1.38;89.08
50364;BME280;36272;59.400;17.982;2023-12-20T04:26:54;99209.75;;;1.39;88.92
50364;BME280;36272;59.400;17.982;2023-12-20T04:31:55;99201.22;;;1.37;89.14
50364;BME280;36272;59.400;17.982;2023-12-20T04:36:57;99192.72;;;1.35;89.41
50364;BME280;36272;59.400;17.982;2023-12-20T04:41:59;99186.59;;;1.34;89.20
50364;BME280;36272;59.400;17.982;2023-12-20T04:47:00;99185.41;;;1.30;89.09
50364;BME280;36272;59.400;17.982;2023-12-20T04:52:02;99176.06;;;1.28;89.37
50364;BME280;36272;59.400;17.982;2023-12-20T04:57:04;99181.34;;;1.28;88.90
50364;BME280;36272;59.400;17.982;2023-12-20T05:02:05;99172.63;;;1.27;89.35
50364;BME280;36272;59.400;17.982;2023-12-20T05:07:07;99166.53;;;1.27;89.07
50364;BME280;36272;59.400;17.982;2023-12-20T05:12:09;99164.53;;;1.29;89.07
50364;BME280;36272;59.400;17.982;2023-12-20T05:17:10;99158.06;;;1.31;88.94
50364;BME280;36272;59.400;17.982;2023-12-20T05:22:12;99150.56;;;1.35;88.95
50364;BME280;36272;59.400;17.982;2023-12-20T05:27:13;99152.19;;;1.36;88.85
50364;BME280;36272;59.400;17.982;2023-12-20T05:32:15;99158.25;;;1.37;89.04
50364;BME280;36272;59.400;17.982;2023-12-20T05:37:17;99157.44;;;1.36;88.97
50364;BME280;36272;59.400;17.982;2023-12-20T05:42:22;99134.53;;;1.37;89.03
50364;BME280;36272;59.400;17.982;2023-12-20T05:47:26;99138.00;;;1.37;89.03
50364;BME280;36272;59.400;17.982;2023-12-20T05:52:28;99138.00;;;1.37;88.94
50364;BME280;36272;59.400;17.982;2023-12-20T05:57:30;99139.00;;;1.36;88.84
50364;BME280;36272;59.400;17.982;2023-12-20T06:02:49;99106.56;;;1.29;89.20
50364;BME280;36272;59.400;17.982;2023-12-20T06:07:50;99099.47;;;1.36;88.87
50364;BME280;36272;59.400;17.982;2023-12-20T06:12:52;99109.63;;;1.39;88.91
50364;BME280;36272;59.400;17.982;2023-12-20T06:17:59;99100.28;;;1.37;88.98
50364;BME280;36272;59.400;17.982;2023-12-20T06:23:01;99088.72;;;1.38;89.02
50364;BME280;36272;59.400;17.982;2023-12-20T06:28:03;99086.91;;;1.45;88.91
50364;BME280;36272;59.400;17.982;2023-12-20T06:33:05;99092.78;;;1.47;88.96
50364;BME280;36272;59.400;17.982;2023-12-20T06:38:08;99086.72;;;1.46;88.96
50364;BME280;36272;59.400;17.982;2023-12-20T06:43:11;99085.31;;;1.51;89.24
50364;BME280;36272;59.400;17.982;2023-12-20T06:48:13;99075.97;;;1.55;89.13
50364;BME280;36272;59.400;17.982;2023-12-20T06:53:15;99067.47;;;1.59;89.31
50364;BME280;36272;59.400;17.982;2023-12-20T06:58:18;99079.22;;;1.63;89.18
50364;BME280;36272;59.400;17.982;2023-12-20T07:03:19;99075.56;;;1.65;89.01
50364;BME280;36272;59.400;17.982;2023-12-20T07:08:21;99085.91;;;1.66;89.24
50364;BME280;36272;59.400;17.982;2023-12-20T07:13:22;99091.16;;;1.66;89.20
50364;BME280;36272;59.400;17.982;2023-12-20T07:18:24;99092.59;;;1.69;89.45
50364;BME280;36272;59.400;17.982;2023-12-20T07:23:29;99079.22;;;1.70;89.34
50364;BME280;36272;59.400;17.982;2023-12-20T07:28:33;99065.00;;;1.71;89.65
50364;BME280;36272;59.400;17.982;2023-12-20T07:33:40;99073.53;;;1.73;89.45
50364;BME280;36272;59.400;17.982;2023-12-20T07:38:42;99065.81;;;1.78;89.52
50364;BME280;36272;59.400;17.982;2023-12-20T07:43:45;99055.88;;;1.81;89.68
50364;BME280;36272;59.400;17.982;2023-12-20T07:48:47;99046.97;;;1.82;89.56
50364;BME280;36272;59.400;17.982;2023-12-20T07:53:48;99042.06;;;1.85;89.78
50364;BME280;36272;59.400;17.982;2023-12-20T07:58:50;99038.22;;;1.88;89.64
50364;BME280;36272;59.400;17.982;2023-12-20T08:03:51;99029.91;;;1.91;89.67
50364;BME280;36272;59.400;17.982;2023-12-20T08:08:53;99029.50;;;1.94;89.80
50364;BME280;36272;59.400;17.982;2023-12-20T08:13:55;99040.44;;;1.98;89.62
50364;BME280;36272;59.400;17.982;2023-12-20T08:18:56;99042.84;;;1.99;89.83
50364;BME280;36272;59.400;17.982;2023-12-20T08:23:58;99032.09;;;2.01;89.77
50364;BME280;36272;59.400;17.982;2023-12-20T08:29:04;99023.78;;;2.04;89.65
50364;BME280;36272;59.400;17.982;2023-12-20T08:34:05;99019.09;;;2.06;90.02
50364;BME280;36272;59.400;17.982;2023-12-20T08:39:07;99010.97;;;2.07;89.80
50364;BME280;36272;59.400;17.982;2023-12-20T08:44:12;99008.94;;;2.10;89.81
50364;BME280;36272;59.400;17.982;2023-12-20T08:49:16;99019.09;;;2.13;89.96
50364;BME280;36272;59.400;17.982;2023-12-20T08:54:18;99014.63;;;2.13;90.08
50364;BME280;36272;59.400;17.982;2023-12-20T08:59:21;99015.84;;;2.17;90.12
50364;BME280;36272;59.400;17.982;2023-12-20T09:04:22;99009.31;;;2.20;90.00
50364;BME280;36272;59.400;17.982;2023-12-20T09:09:24;98998.75;;;2.20;90.25
50364;BME280;36272;59.400;17.982;2023-12-20T09:14:26;99002.38;;;2.26;90.11
50364;BME280;36272;59.400;17.982;2023-12-20T09:19:28;99001.38;;;2.27;90.21
50364;BME280;36272;59.400;17.982;2023-12-20T09:24:30;98988.19;;;2.27;90.26
50364;BME280;36272;59.400;17.982;2023-12-20T09:29:31;98985.13;;;2.30;90.26
50364;BME280;36272;59.400;17.982;2023-12-20T09:34:33;98969.50;;;2.28;90.21
50364;BME280;36272;59.400;17.982;2023-12-20T09:39:35;98966.88;;;2.28;90.22
50364;BME280;36272;59.400;17.982;2023-12-20T09:44:39;98944.53;;;2.31;90.43
50364;BME280;36272;59.400;17.982;2023-12-20T09:49:44;98929.69;;;2.36;90.10
50364;BME280;36272;59.400;17.982;2023-12-20T09:54:49;98916.91;;;2.33;90.42
50364;BME280;36272;59.400;17.982;2023-12-20T09:59:53;98928.06;;;2.35;90.36
50364;BME280;36272;59.400;17.982;2023-12-20T10:04:59;98897.00;;;2.37;90.10
50364;BME280;36272;59.400;17.982;2023-12-20T10:10:01;98898.63;;;2.38;90.25
50364;BME280;36272;59.400;17.982;2023-12-20T10:15:04;98894.97;;;2.40;90.46
50364;BME280;36272;59.400;17.982;2023-12-20T10:20:06;98874.44;;;2.42;90.29
50364;BME280;36272;59.400;17.982;2023-12-20T10:25:11;98862.41;;;2.46;90.41
50364;BME280;36272;59.400;17.982;2023-12-20T10:30:15;98841.91;;;2.48;90.44
50364;BME280;36272;59.400;17.982;2023-12-20T10:35:17;98849.97;;;2.53;90.36
50364;BME280;36272;59.400;17.982;2023-12-20T10:40:21;98834.97;;;2.53;90.38
50364;BME280;36272;59.400;17.982;2023-12-20T10:45:23;98837.38;;;2.55;90.32
50364;BME280;36272;59.400;17.982;2023-12-20T10:50:26;98825.59;;;2.58;90.51
50364;BME280;36272;59.400;17.982;2023-12-20T10:55:28;98812.16;;;2.59;90.52
50364;BME280;36272;59.400;17.982;2023-12-20T11:00:31;98795.53;;;2.59;90.75
50364;BME280;36272;59.400;17.982;2023-12-20T11:05:41;98790.25;;;2.59;90.62
50364;BME280;36272;59.400;17.982;2023-12-20T11:10:56;98782.09;;;2.60;90.92
50364;BME280;36272;59.400;17.982;2023-12-20T11:16:02;98778.44;;;2.61;90.59
50364;BME280;36272;59.400;17.982;2023-12-20T11:21:04;98771.13;;;2.63;90.52
50364;BME280;36272;59.400;17.982;2023-12-20T11:26:06;98778.88;;;2.58;90.33
50364;BME280;36272;59.400;17.982;2023-12-20T11:31:08;98763.84;;;2.59;90.39
50364;BME280;36272;59.400;17.982;2023-12-20T11:36:18;98743.97;;;2.56;90.64
50364;BME280;36272;59.400;17.982;2023-12-20T11:41:23;98750.06;;;2.57;90.47
50364;BME280;36272;59.400;17.982;2023-12-20T11:46:25;98733.41;;;2.56;90.58
50364;BME280;36272;59.400;17.982;2023-12-20T11:51:30;98716.78;;;2.56;90.54
50364;BME280;36272;59.400;17.982;2023-12-20T11:56:31;98721.81;;;2.57;90.65
50364;BME280;36272;59.400;17.982;2023-12-20T12:01:33;98720.22;;;2.56;90.44
50364;BME280;36272;59.400;17.982;2023-12-20T12:06:35;98707.84;;;2.57;90.66
50364;BME280;36272;59.400;17.982;2023-12-20T12:11:36;98691.41;;;2.55;90.42
50364;BME280;36272;59.400;17.982;2023-12-20T12:16:38;98695.88;;;2.54;90.37
50364;BME280;36272;59.400;17.982;2023-12-20T12:21:40;98687.34;;;2.52;90.36
50364;BME280;36272;59.400;17.982;2023-12-20T12:26:50;98677.22;;;2.49;90.53
50364;BME280;36272;59.400;17.982;2023-12-20T12:31:51;98683.53;;;2.48;90.21
50364;BME280;36272;59.400;17.982;2023-12-20T12:36:53;98670.22;;;2.43;90.44
50364;BME280;36272;59.400;17.982;2023-12-20T12:41:58;98666.53;;;2.44;90.29
50364;BME280;36272;59.400;17.982;2023-12-20T12:47:03;98662.28;;;2.43;90.35
50364;BME280;36272;59.400;17.982;2023-12-20T12:52:05;98654.81;;;2.40;90.51
50364;BME280;36272;59.400;17.982;2023-12-20T12:57:31;98645.06;;;2.40;91.08
50364;BME280;36272;59.400;17.982;2023-12-20T13:14:28;98621.97;;;2.35;91.07
50364;BME280;36272;59.400;17.982;2023-12-20T13:20:09;98609.94;;;2.40;91.42
50364;BME280;36272;59.400;17.982;2023-12-20T13:25:17;98616.69;;;2.35;91.12
50364;BME280;36272;59.400;17.982;2023-12-20T13:30:18;98614.63;;;2.37;91.21
50364;BME280;36272;59.400;17.982;2023-12-20T13:35:25;98599.59;;;2.38;91.37
50364;BME280;36272;59.400;17.982;2023-12-20T13:40:45;98595.59;;;2.35;91.54
50364;BME280;36272;59.400;17.982;2023-12-20T13:46:13;98613.38;;;2.40;91.68
50364;BME280;36272;59.400;17.982;2023-12-20T13:58:01;98595.94;;;2.39;91.51
50364;BME280;36272;59.400;17.982;2023-12-20T14:08:07;98593.28;;;2.39;91.65
50364;BME280;36272;59.400;17.982;2023-12-20T14:13:10;98599.50;;;2.45;91.98
50364;BME280;36272;59.400;17.982;2023-12-20T14:18:24;98581.94;;;2.38;92.22
50364;BME280;36272;59.400;17.982;2023-12-20T14:23:30;98582.06;;;2.44;92.02
50364;BME280;36272;59.400;17.982;2023-12-20T14:28:32;98600.53;;;2.44;92.29
50364;BME280;36272;59.400;17.982;2023-12-20T14:46:26;98572.69;;;2.48;92.67
50364;BME280;36272;59.400;17.982;2023-12-20T14:51:37;98566.81;;;2.46;92.79
50364;BME280;36272;59.400;17.982;2023-12-20T14:56:40;98578.34;;;2.51;92.74
50364;BME280;36272;59.400;17.982;2023-12-20T15:01:43;98562.72;;;2.50;93.16
50364;BME280;36272;59.400;17.982;2023-12-20T15:06:45;98570.44;;;2.51;93.09
50364;BME280;36272;59.400;17.982;2023-12-20T15:11:47;98578.25;;;2.58;93.46
50364;BME280;36272;59.400;17.982;2023-12-20T15:16:48;98561.97;;;2.61;93.64
50364;BME280;36272;59.400;17.982;2023-12-20T15:21:50;98557.72;;;2.60;93.77
50364;BME280;36272;59.400;17.982;2023-12-20T15:26:52;98557.06;;;2.65;94.06
50364;BME280;36272;59.400;17.982;2023-12-20T15:31:57;98556.97;;;2.72;94.15
50364;BME280;36272;59.400;17.982;2023-12-20T15:37:02;98544.38;;;2.74;94.17
50364;BME280;36272;59.400;17.982;2023-12-20T15:42:03;98534.81;;;2.73;94.47
50364;BME280;36272;59.400;17.982;2023-12-20T15:47:08;98536.66;;;2.72;94.79
50364;BME280;36272;59.400;17.982;2023-12-20T15:52:12;98532.63;;;2.70;95.25
50364;BME280;36272;59.400;17.982;2023-12-20T15:57:48;98522.88;;;2.70;95.61
50364;BME280;36272;59.400;17.982;2023-12-20T16:02:47;98533.56;;;2.75;95.45
50364;BME280;36272;59.400;17.982;2023-12-20T16:07:48;98540.69;;;2.75;95.78
50364;BME280;36272;59.400;17.982;2023-12-20T16:12:50;98539.22;;;2.79;95.69
50364;BME280;36272;59.400;17.982;2023-12-20T16:17:52;98541.63;;;2.80;95.79
50364;BME280;36272;59.400;17.982;2023-12-20T16:23:01;98538.53;;;2.83;96.27
50364;BME280;36272;59.400;17.982;2023-12-20T16:28:05;98529.81;;;2.83;96.12
50364;BME280;36272;59.400;17.982;2023-12-20T16:33:06;98549.69;;;2.86;96.04
50364;BME280;36272;59.400;17.982;2023-12-20T16:38:08;98549.44;;;2.87;96.18
50364;BME280;36272;59.400;17.982;2023-12-20T16:43:10;98544.75;;;2.89;96.11
50364;BME280;36272;59.400;17.982;2023-12-20T16:48:11;98546.94;;;2.92;96.32
50364;BME280;36272;59.400;17.982;2023-12-20T16:53:13;98530.88;;;2.94;96.29
50364;BME280;36272;59.400;17.982;2023-12-20T16:58:16;98533.88;;;2.97;96.38
50364;BME280;36272;59.400;17.982;2023-12-20T17:03:19;98537.09;;;3.00;96.38
50364;BME280;36272;59.400;17.982;2023-12-20T17:08:21;98539.97;;;2.98;96.58
50364;BME280;36272;59.400;17.982;2023-12-20T17:13:22;98543.41;;;2.98;96.67
50364;BME280;36272;59.400;17.982;2023-12-20T17:18:24;98540.56;;;3.00;96.96
50364;BME280;36272;59.400;17.982;2023-12-20T17:23:26;98527.09;;;3.02;96.72
50364;BME280;36272;59.400;17.982;2023-12-20T17:28:29;98522.06;;;3.00;97.10
50364;BME280;36272;59.400;17.982;2023-12-20T17:33:30;98523.66;;;3.01;97.29
50364;BME280;36272;59.400;17.982;2023-12-20T17:38:32;98525.63;;;3.06;97.29
50364;BME280;36272;59.400;17.982;2023-12-20T17:43:37;98528.25;;;3.06;97.04
50364;BME280;36272;59.400;17.982;2023-12-20T17:48:39;98521.16;;;3.06;97.12
50364;BME280;36272;59.400;17.982;2023-12-20T17:53:41;98509.78;;;3.06;97.10
50364;BME280;36272;59.400;17.982;2023-12-20T17:58:43;98519.88;;;3.09;97.25
50364;BME280;36272;59.400;17.982;2023-12-20T18:03:44;98506.94;;;3.07;97.16
50364;BME280;36272;59.400;17.982;2023-12-20T18:08:46;98508.53;;;3.08;96.99
50364;BME280;36272;59.400;17.982;2023-12-20T18:13:47;98518.28;;;3.08;97.16
50364;BME280;36272;59.400;17.982;2023-12-20T18:18:49;98521.75;;;3.08;97.10
50364;BME280;36272;59.400;17.982;2023-12-20T18:23:51;98512.53;;;3.11;97.21
50364;BME280;36272;59.400;17.982;2023-12-20T18:28:53;98508.28;;;3.10;97.46
50364;BME280;36272;59.400;17.982;2023-12-20T18:33:55;98497.72;;;3.10;97.35
50364;BME280;36272;59.400;17.982;2023-12-20T18:38:56;98501.63;;;3.07;97.41
50364;BME280;36272;59.400;17.982;2023-12-20T18:43:58;98506.56;;;3.04;97.44
50364;BME280;36272;59.400;17.982;2023-12-20T18:49:00;98507.00;;;3.01;97.28
50364;BME280;36272;59.400;17.982;2023-12-20T18:54:02;98490.38;;;3.00;97.34
50364;BME280;36272;59.400;17.982;2023-12-20T18:59:04;98489.78;;;2.98;97.17
50364;BME280;36272;59.400;17.982;2023-12-20T19:04:05;98478.84;;;2.94;97.03
50364;BME280;36272;59.400;17.982;2023-12-20T19:09:07;98493.53;;;2.90;97.16
50364;BME280;36272;59.400;17.982;2023-12-20T19:14:09;98493.53;;;2.90;97.04
50364;BME280;36272;59.400;17.982;2023-12-20T19:19:14;98493.97;;;2.87;97.05
50364;BME280;36272;59.400;17.982;2023-12-20T19:24:16;98496.06;;;2.85;97.17
50364;BME280;36272;59.400;17.982;2023-12-20T19:29:17;98489.38;;;2.82;97.03
50364;BME280;36272;59.400;17.982;2023-12-20T19:34:19;98489.63;;;2.81;97.17
50364;BME280;36272;59.400;17.982;2023-12-20T19:39:21;98499.63;;;2.79;96.70
50364;BME280;36272;59.400;17.982;2023-12-20T19:44:22;98503.28;;;2.78;96.71
50364;BME280;36272;59.400;17.982;2023-12-20T19:49:24;98502.47;;;2.77;96.76
50364;BME280;36272;59.400;17.982;2023-12-20T19:54:26;98513.25;;;2.76;96.81
50364;BME280;36272;59.400;17.982;2023-12-20T19:59:28;98502.69;;;2.76;96.64
50364;BME280;36272;59.400;17.982;2023-12-20T20:04:29;98516.94;;;2.75;96.91
50364;BME280;36272;59.400;17.982;2023-12-20T20:09:31;98509.22;;;2.73;96.88
50364;BME280;36272;59.400;17.982;2023-12-20T20:14:32;98507.59;;;2.72;96.87
50364;BME280;36272;59.400;17.982;2023-12-20T20:19:34;98502.13;;;2.74;96.83
50364;BME280;36272;59.400;17.982;2023-12-20T20:24:36;98502.91;;;2.74;96.70
50364;BME280;36272;59.400;17.982;2023-12-20T20:29:37;98502.91;;;2.74;96.79
50364;BME280;36272;59.400;17.982;2023-12-20T20:34:39;98509.22;;;2.73;96.93
50364;BME280;36272;59.400;17.982;2023-12-20T20:39:41;98509.00;;;2.75;97.06
50364;BME280;36272;59.400;17.982;2023-12-20T20:44:43;98498.44;;;2.75;97.16
50364;BME280;36272;59.400;17.982;2023-12-20T20:49:44;98501.28;;;2.73;97.31
50364;BME280;36272;59.400;17.982;2023-12-20T20:54:46;98509.00;;;2.75;97.08
50364;BME280;36272;59.400;17.982;2023-12-20T20:59:47;98497.63;;;2.74;97.14
50364;BME280;36272;59.400;17.982;2023-12-20T21:04:49;98488.91;;;2.74;97.33
50364;BME280;36272;59.400;17.982;2023-12-20T21:09:50;98490.53;;;2.75;97.33
50364;BME280;36272;59.400;17.982;2023-12-20T21:14:52;98491.31;;;2.75;97.40
50364;BME280;36272;59.400;17.982;2023-12-20T21:19:54;98480.31;;;2.78;97.48
50364;BME280;36272;59.400;17.982;2023-12-20T21:25:00;98467.34;;;2.77;97.66
50364;BME280;36272;59.400;17.982;2023-12-20T21:30:02;98484.56;;;2.79;97.46
50364;BME280;36272;59.400;17.982;2023-12-20T21:35:05;98467.69;;;2.80;97.70
50364;BME280;36272;59.400;17.982;2023-12-20T21:40:07;98462.19;;;2.82;97.66
50364;BME280;36272;59.400;17.982;2023-12-20T21:45:10;98460.34;;;2.82;97.44
50364;BME280;36272;59.400;17.982;2023-12-20T21:50:12;98476.19;;;2.82;97.50
50364;BME280;36272;59.400;17.982;2023-12-20T21:55:15;98454.28;;;2.82;97.73
50364;BME280;36272;59.400;17.982;2023-12-20T22:00:17;98458.53;;;2.83;97.80
50364;BME280;36272;59.400;17.982;2023-12-20T22:05:19;98471.72;;;2.83;97.74
50364;BME280;36272;59.400;17.982;2023-12-20T22:10:21;98468.06;;;2.84;97.72
50364;BME280;36272;59.400;17.982;2023-12-20T22:15:22;98473.53;;;2.82;97.65
50364;BME280;36272;59.400;17.982;2023-12-20T22:20:24;98477.00;;;2.83;98.03
50364;BME280;36272;59.400;17.982;2023-12-20T22:25:26;98467.25;;;2.83;97.91
50364;BME280;36272;59.400;17.982;2023-12-20T22:30:27;98462.78;;;2.84;98.02
50364;BME280;36272;59.400;17.982;2023-12-20T22:35:29;98466.44;;;2.83;98.06
50364;BME280;36272;59.400;17.982;2023-12-20T22:40:30;98459.66;;;2.87;98.14
50364;BME280;36272;59.400;17.982;2023-12-20T22:45:32;98461.25;;;2.88;98.03
50364;BME280;36272;59.400;17.982;2023-12-20T22:50:36;98465.19;;;2.86;97.89
50364;BME280;36272;59.400;17.982;2023-12-20T22:55:37;98443.47;;;2.83;98.00
50364;BME280;36272;59.400;17.982;2023-12-20T23:00:39;98439.00;;;2.84;97.98
50364;BME280;36272;59.400;17.982;2023-12-20T23:05:41;98437.16;;;2.85;98.08
50364;BME280;36272;59.400;17.982;2023-12-20T23:10:43;98441.66;;;2.84;97.91
50364;BME280;36272;59.400;17.982;2023-12-20T23:15:44;98436.38;;;2.84;97.68
50364;BME280;36272;59.400;17.982;2023-12-20T23:20:46;98435.22;;;2.80;97.57
50364;BME280;36272;59.400;17.982;2023-12-20T23:25:53;98414.88;;;2.80;97.89
50364;BME280;36272;59.400;17.982;2023-12-20T23:30:55;98409.84;;;2.79;97.59
50364;BME280;36272;59.400;17.982;2023-12-20T23:35:56;98423.25;;;2.77;97.10
50364;BME280;36272;59.400;17.982;2023-12-20T23:40:58;98405.00;;;2.76;97.12
50364;BME280;36272;59.400;17.982;2023-12-20T23:45:59;98412.56;;;2.72;96.74
50364;BME280;36272;59.400;17.982;2023-12-20T23:51:01;98400.19;;;2.73;96.88
50364;BME280;36272;59.400;17.982;2023-12-20T23:56:03;98391.88;;;2.69;96.88
